createdAt,value
2023-11-26T00:00:52.600Z,27.15
2023-11-26T00:02:55.688Z,25.75
2023-11-26T00:04:58.809Z,24.35
2023-11-26T00:07:01.911Z,23.35
2023-11-26T00:09:07.768Z,24.58
2023-11-26T00:11:11.996Z,20.85
2023-11-26T00:13:14.947Z,24.17
2023-11-26T00:15:18.202Z,20.52
2023-11-26T00:17:23.992Z,20.08
2023-11-26T00:19:28.646Z,17.42
2023-11-26T00:21:31.536Z,20.25
2023-11-26T00:23:34.796Z,26.10
2023-11-26T00:25:39.741Z,22.40
2023-11-26T00:27:42.786Z,25.48
2023-11-26T00:29:46.429Z,18.33
2023-11-26T00:31:50.700Z,19.80
2023-11-26T00:33:53.657Z,19.77
2023-11-26T00:35:56.668Z,21.80
2023-11-26T00:37:59.762Z,24.38
2023-11-26T00:40:07.093Z,21.38
2023-11-26T00:42:11.556Z,22.30
2023-11-26T00:44:14.730Z,26.05
2023-11-26T00:46:17.798Z,27.23
2023-11-26T00:48:20.898Z,20.33
2023-11-26T00:50:24.108Z,23.63
2023-11-26T00:52:27.208Z,21.33
2023-11-26T00:54:30.193Z,24.27
2023-11-26T00:56:33.851Z,17.15
2023-11-26T00:58:38.337Z,17.20
2023-11-26T01:00:41.301Z,19.00
2023-11-26T01:02:46.100Z,10.90
2023-11-26T01:04:49.415Z,16.45
2023-11-26T01:06:52.466Z,13.13
2023-11-26T01:08:55.473Z,9.48
2023-11-26T01:10:58.507Z,13.35
2023-11-26T01:13:03.015Z,11.68
2023-11-26T01:15:09.056Z,7.75
2023-11-26T01:17:12.244Z,11.00
2023-11-26T01:19:15.606Z,8.10
2023-11-26T01:21:19.427Z,9.95
2023-11-26T01:23:22.556Z,10.30
2023-11-26T01:25:26.009Z,9.02
2023-11-26T01:27:28.966Z,7.57
2023-11-26T01:29:31.999Z,8.55
2023-11-26T01:31:36.304Z,8.25
2023-11-26T01:33:39.372Z,7.40
2023-11-26T01:35:42.304Z,4.85
2023-11-26T01:37:45.230Z,5.68
2023-11-26T01:39:48.221Z,5.75
2023-11-26T01:41:51.427Z,6.60
2023-11-26T01:43:54.498Z,5.75
2023-11-26T01:46:05.392Z,3.92
2023-11-26T01:48:10.902Z,5.63
2023-11-26T01:52:23.740Z,5.35
2023-11-26T01:54:27.258Z,5.72
2023-11-26T01:56:30.865Z,6.60
2023-11-26T01:58:34.296Z,7.18
2023-11-26T02:00:37.780Z,4.70
2023-11-26T02:02:42.182Z,6.63
2023-11-26T02:04:46.696Z,6.97
2023-11-26T02:06:50.183Z,4.30
2023-11-26T02:08:53.137Z,11.27
2023-11-26T02:10:56.980Z,5.43
2023-11-26T02:13:03.427Z,7.47
2023-11-26T02:15:08.447Z,5.88
2023-11-26T02:17:11.657Z,5.93
2023-11-26T02:19:26.951Z,6.93
2023-11-26T02:21:32.889Z,5.00
2023-11-26T02:23:37.496Z,7.75
2023-11-26T02:25:41.954Z,4.70
2023-11-26T02:27:45.589Z,4.25
2023-11-26T02:29:48.567Z,8.13
2023-11-26T02:31:52.330Z,7.72
2023-11-26T02:33:56.304Z,9.85
2023-11-26T02:36:00.149Z,9.13
2023-11-26T02:38:04.533Z,8.55
2023-11-26T02:40:09.162Z,6.57
2023-11-26T02:42:14.080Z,5.03
2023-11-26T02:44:17.332Z,3.70
2023-11-26T02:46:20.306Z,4.57
2023-11-26T02:48:23.405Z,5.10
2023-11-26T02:50:27.352Z,4.03
2023-11-26T02:52:30.416Z,4.97
2023-11-26T02:54:33.414Z,4.63
2023-11-26T02:56:36.459Z,4.05
2023-11-26T02:58:42.541Z,6.57
2023-11-26T03:00:46.369Z,5.10
2023-11-26T03:02:49.845Z,6.55
2023-11-26T03:05:04.925Z,4.47
2023-11-26T03:07:07.858Z,7.05
2023-11-26T03:09:29.724Z,6.43
2023-11-26T03:11:51.302Z,8.25
2023-11-26T03:13:57.349Z,6.03
2023-11-26T03:16:01.251Z,6.05
2023-11-26T03:18:09.644Z,8.35
2023-11-26T03:20:18.096Z,5.78
2023-11-26T03:22:21.106Z,7.40
2023-11-26T03:24:24.407Z,5.20
2023-11-26T03:26:28.590Z,9.18
2023-11-26T03:28:31.472Z,7.93
2023-11-26T03:30:37.635Z,5.57
2023-11-26T03:32:40.749Z,7.18
2023-11-26T03:34:44.484Z,7.55
2023-11-26T03:36:47.371Z,7.13
2023-11-26T03:38:50.547Z,7.40
2023-11-26T03:40:53.683Z,9.30
2023-11-26T03:42:56.642Z,8.43
2023-11-26T03:44:59.695Z,8.32
2023-11-26T03:47:05.918Z,7.45
2023-11-26T03:49:10.104Z,9.05
2023-11-26T03:51:17.134Z,7.18
2023-11-26T03:53:19.972Z,9.63
2023-11-26T03:55:23.351Z,8.45
2023-11-26T03:57:27.481Z,7.80
2023-11-26T03:59:30.713Z,6.20
2023-11-26T04:01:33.727Z,8.30
2023-11-26T04:03:38.293Z,8.93
2023-11-26T04:07:46.453Z,9.10
2023-11-26T04:09:50.046Z,9.73
2023-11-26T04:11:53.433Z,7.38
2023-11-26T04:13:56.417Z,8.80
2023-11-26T04:16:00.375Z,9.48
2023-11-26T04:18:03.712Z,8.68
2023-11-26T04:20:10.195Z,6.63
2023-11-26T04:22:14.556Z,8.77
2023-11-26T04:24:19.840Z,10.60
2023-11-26T04:26:27.443Z,10.32
2023-11-26T04:28:35.489Z,8.73
2023-11-26T04:30:38.568Z,6.65
2023-11-26T04:32:41.695Z,9.68
2023-11-26T04:34:44.675Z,9.43
2023-11-26T04:36:49.164Z,9.98
2023-11-26T04:38:52.726Z,9.13
2023-11-26T04:40:55.771Z,8.40
2023-11-26T04:42:58.760Z,9.13
2023-11-26T04:45:01.842Z,10.60
2023-11-26T04:47:05.088Z,6.90
2023-11-26T04:49:08.935Z,9.43
2023-11-26T04:51:11.847Z,10.18
2023-11-26T04:53:17.944Z,11.10
2023-11-26T04:55:21.060Z,12.23
2023-11-26T04:57:24.082Z,9.10
2023-11-26T04:59:27.578Z,9.13
2023-11-26T05:01:30.875Z,8.32
2023-11-26T05:03:33.862Z,8.48
2023-11-26T05:05:37.130Z,9.65
2023-11-26T05:07:40.823Z,10.93
2023-11-26T05:09:46.032Z,10.10
2023-11-26T05:11:48.965Z,9.45
2023-11-26T05:13:51.969Z,10.60
2023-11-26T05:15:54.944Z,7.72
2023-11-26T05:17:58.318Z,12.00
2023-11-26T05:20:01.622Z,10.07
2023-11-26T05:22:05.021Z,11.02
2023-11-26T05:24:08.479Z,10.48
2023-11-26T05:26:15.628Z,10.75
2023-11-26T05:28:19.541Z,10.10
2023-11-26T05:30:22.793Z,10.88
2023-11-26T05:32:25.790Z,12.23
2023-11-26T05:34:28.952Z,10.07
2023-11-26T05:36:32.258Z,8.27
2023-11-26T05:38:35.394Z,10.15
2023-11-26T05:40:38.281Z,11.35
2023-11-26T05:42:42.897Z,8.90
2023-11-26T05:44:45.846Z,10.93
2023-11-26T05:46:48.808Z,11.45
2023-11-26T05:48:51.894Z,12.05
2023-11-26T05:50:54.976Z,10.93
2023-11-26T05:52:58.081Z,13.90
2023-11-26T05:55:02.648Z,15.80
2023-11-26T05:57:06.287Z,18.25
2023-11-26T05:59:10.755Z,22.48
2023-11-26T06:01:13.833Z,30.88
2023-11-26T06:03:16.948Z,30.73
2023-11-26T06:05:20.033Z,30.25
2023-11-26T06:07:23.310Z,37.60
2023-11-26T06:09:26.607Z,42.22
2023-11-26T06:11:29.670Z,31.88
2023-11-26T06:13:32.654Z,32.83
2023-11-26T06:15:37.199Z,22.92
2023-11-26T06:17:40.255Z,19.08
2023-11-26T06:19:43.263Z,17.38
2023-11-26T06:21:48.251Z,18.52
2023-11-26T06:23:54.617Z,18.45
2023-11-26T06:25:58.934Z,15.65
2023-11-26T06:28:02.068Z,11.55
2023-11-26T06:30:05.633Z,9.25
2023-11-26T06:32:10.682Z,9.25
2023-11-26T06:34:13.713Z,9.50
2023-11-26T06:36:20.304Z,9.95
2023-11-26T06:38:23.322Z,11.15
2023-11-26T06:40:27.449Z,10.43
2023-11-26T06:42:30.497Z,11.00
2023-11-26T06:44:33.855Z,9.35
2023-11-26T06:46:37.450Z,10.63
2023-11-26T06:48:41.916Z,14.10
2023-11-26T06:50:44.888Z,11.00
2023-11-26T06:52:48.145Z,13.07
2023-11-26T06:54:51.073Z,10.38
2023-11-26T06:56:54.247Z,9.13
2023-11-26T06:58:57.629Z,11.68
2023-11-26T07:01:01.154Z,11.63
2023-11-26T07:03:04.179Z,9.10
2023-11-26T07:05:09.650Z,11.98
2023-11-26T07:07:12.897Z,10.32
2023-11-26T07:09:17.065Z,7.70
2023-11-26T07:11:21.185Z,9.57
2023-11-26T07:13:24.265Z,12.25
2023-11-26T07:15:27.264Z,5.18
2023-11-26T07:17:31.431Z,10.35
2023-11-26T07:19:34.441Z,8.95
2023-11-26T07:21:43.000Z,9.07
2023-11-26T07:23:48.388Z,7.28
2023-11-26T07:25:51.417Z,7.45
2023-11-26T07:27:54.258Z,8.80
2023-11-26T07:29:57.426Z,7.00
2023-11-26T07:32:00.946Z,10.70
2023-11-26T07:34:04.458Z,6.43
2023-11-26T07:36:13.527Z,8.35
2023-11-26T07:38:18.078Z,8.27
2023-11-26T07:40:21.675Z,7.75
2023-11-26T07:42:24.714Z,8.35
2023-11-26T07:44:27.880Z,9.57
2023-11-26T07:46:31.644Z,7.25
2023-11-26T07:48:35.205Z,7.15
2023-11-26T07:50:38.385Z,7.28
2023-11-26T07:52:41.454Z,6.45
2023-11-26T07:54:45.950Z,8.85
2023-11-26T07:56:48.939Z,7.63
2023-11-26T07:58:52.159Z,5.05
2023-11-26T08:00:55.854Z,8.93
2023-11-26T08:02:58.939Z,12.80
2023-11-26T08:05:01.948Z,10.27
2023-11-26T08:07:06.511Z,8.48
2023-11-26T08:09:12.240Z,7.32
2023-11-26T08:11:17.713Z,14.38
2023-11-26T08:13:24.422Z,11.95
2023-11-26T08:15:29.590Z,10.13
2023-11-26T08:17:33.955Z,10.00
2023-11-26T08:19:37.674Z,7.82
2023-11-26T08:21:41.679Z,5.90
2023-11-26T08:23:51.990Z,7.78
2023-11-26T08:26:06.353Z,4.07
2023-11-26T08:28:17.635Z,6.40
2023-11-26T08:30:32.694Z,5.78
2023-11-26T08:32:38.017Z,5.65
2023-11-26T08:34:43.208Z,4.88
2023-11-26T08:36:47.596Z,4.00
2023-11-26T08:38:51.902Z,3.67
2023-11-26T08:40:56.253Z,4.45
2023-11-26T08:42:59.777Z,5.00
2023-11-26T08:45:05.148Z,5.25
2023-11-26T08:47:08.106Z,14.48
2023-11-26T08:49:11.676Z,4.03
2023-11-26T08:51:15.725Z,3.60
2023-11-26T08:53:18.796Z,5.07
2023-11-26T08:55:21.839Z,3.80
2023-11-26T08:57:24.833Z,6.55
2023-11-26T08:59:27.936Z,4.57
2023-11-26T09:01:32.706Z,4.30
2023-11-26T09:03:38.544Z,5.82
2023-11-26T09:05:41.691Z,8.48
2023-11-26T09:07:46.773Z,6.10
2023-11-26T09:09:50.037Z,4.82
2023-11-26T09:11:53.037Z,5.85
2023-11-26T09:13:59.204Z,7.60
2023-11-26T09:16:02.987Z,7.10
2023-11-26T09:18:07.743Z,4.30
2023-11-26T09:20:13.199Z,5.20
2023-11-26T09:24:19.852Z,7.00
2023-11-26T09:26:22.982Z,6.53
2023-11-26T09:28:26.273Z,7.38
2023-11-26T09:30:29.536Z,5.18
2023-11-26T09:32:32.773Z,1.45
2023-11-26T09:34:37.264Z,1.20
2023-11-26T09:36:43.112Z,7.55
2023-11-26T09:38:46.802Z,4.65
2023-11-26T09:40:49.764Z,6.68
2023-11-26T09:42:54.761Z,5.93
2023-11-26T09:44:57.875Z,5.15
2023-11-26T09:47:00.977Z,4.68
2023-11-26T09:49:04.241Z,3.78
2023-11-26T09:51:10.475Z,6.93
2023-11-26T09:53:15.078Z,4.10
2023-11-26T09:55:18.305Z,1.20
2023-11-26T09:57:21.339Z,5.85
2023-11-26T09:59:25.936Z,8.02
2023-11-26T10:01:28.826Z,3.40
2023-11-26T10:03:32.058Z,7.32
2023-11-26T10:05:36.221Z,7.97
2023-11-26T10:07:43.483Z,3.42
2023-11-26T10:10:02.349Z,6.40
2023-11-26T10:12:06.973Z,2.20
2023-11-26T10:14:15.676Z,7.35
2023-11-26T10:16:34.053Z,5.82
2023-11-26T10:18:44.444Z,10.25
2023-11-26T10:20:52.012Z,10.13
2023-11-26T10:22:57.764Z,7.18
2023-11-26T10:27:15.533Z,7.60
2023-11-26T10:29:20.459Z,9.38
2023-11-26T10:31:23.344Z,9.57
2023-11-26T10:33:31.238Z,6.72
2023-11-26T10:35:52.947Z,10.98
2023-11-26T10:38:13.293Z,7.43
2023-11-26T10:40:16.232Z,5.60
2023-11-26T10:42:19.465Z,7.00
2023-11-26T10:44:23.837Z,6.97
2023-11-26T10:46:27.598Z,10.73
2023-11-26T10:48:32.762Z,15.02
2023-11-26T10:50:41.031Z,18.25
2023-11-26T10:52:47.663Z,12.05
2023-11-26T10:55:00.760Z,14.57
2023-11-26T10:57:18.551Z,13.90
2023-11-26T10:59:23.044Z,10.32
2023-11-26T11:01:26.771Z,10.25
2023-11-26T11:03:30.949Z,11.45
2023-11-26T11:05:35.874Z,10.57
2023-11-26T11:07:40.361Z,10.27
2023-11-26T11:09:54.790Z,15.05
2023-11-26T11:12:05.280Z,14.00
2023-11-26T11:14:08.926Z,25.20
2023-11-26T11:16:12.259Z,14.60
2023-11-26T11:18:40.935Z,13.10
2023-11-26T11:21:07.387Z,17.67
2023-11-26T11:23:32.224Z,10.85
2023-11-26T11:25:36.818Z,19.63
2023-11-26T11:27:50.115Z,8.95
2023-11-26T11:29:53.257Z,6.70
2023-11-26T11:32:04.804Z,8.32
2023-11-26T11:34:21.283Z,12.30
2023-11-26T11:36:53.450Z,6.45
2023-11-26T11:39:05.436Z,11.15
2023-11-26T11:41:10.695Z,10.75
2023-11-26T11:43:17.444Z,14.75
2023-11-26T11:45:31.645Z,14.70
2023-11-26T11:47:43.915Z,10.70
2023-11-26T11:50:08.205Z,13.65
2023-11-26T11:52:12.661Z,10.93
2023-11-26T11:54:48.229Z,14.48
2023-11-26T11:57:00.361Z,13.50
2023-11-26T11:59:04.199Z,7.57
2023-11-26T12:01:07.852Z,1.85
2023-11-26T12:03:17.437Z,13.57
2023-11-26T12:05:26.132Z,12.18
2023-11-26T12:07:35.717Z,11.85
2023-11-26T12:09:42.411Z,5.93
2023-11-26T12:11:46.463Z,12.73
2023-11-26T12:13:53.273Z,10.15
2023-11-26T12:15:57.139Z,10.57
2023-11-26T12:18:02.067Z,10.82
2023-11-26T12:20:11.939Z,16.13
2023-11-26T12:22:15.947Z,16.98
2023-11-26T12:24:21.022Z,15.55
2023-11-26T12:26:23.957Z,10.82
2023-11-26T12:28:27.125Z,11.57
2023-11-26T12:30:32.001Z,10.00
2023-11-26T12:32:35.831Z,9.15
2023-11-26T12:34:40.535Z,10.40
2023-11-26T12:36:43.842Z,7.60
2023-11-26T12:38:47.274Z,11.43
2023-11-26T12:40:50.281Z,13.07
2023-11-26T12:42:53.711Z,21.55
2023-11-26T12:44:56.823Z,36.58
2023-11-26T12:47:11.047Z,21.15
2023-11-26T12:49:17.970Z,28.25
2023-11-26T12:51:21.113Z,30.30
2023-11-26T12:53:24.064Z,16.52
2023-11-26T12:55:27.225Z,15.40
2023-11-26T12:57:30.309Z,11.45
2023-11-26T12:59:46.589Z,8.77
2023-11-26T13:03:54.066Z,18.58
2023-11-26T13:06:10.857Z,10.27
2023-11-26T13:08:22.512Z,10.82
2023-11-26T13:10:44.685Z,11.65
2023-11-26T13:12:47.830Z,12.63
2023-11-26T13:14:50.917Z,9.85
2023-11-26T13:16:55.426Z,14.65
2023-11-26T13:19:00.106Z,6.72
2023-11-26T13:21:07.275Z,14.20
2023-11-26T13:23:10.533Z,16.65
2023-11-26T13:25:13.536Z,13.07
2023-11-26T13:27:16.526Z,15.98
2023-11-26T13:29:20.057Z,21.75
2023-11-26T13:31:22.985Z,27.25
2023-11-26T13:33:26.112Z,21.30
2023-11-26T13:35:30.836Z,23.85
2023-11-26T13:37:34.048Z,21.98
2023-11-26T13:39:38.237Z,22.08
2023-11-26T13:41:42.196Z,41.35
2023-11-26T13:43:45.144Z,25.17
2023-11-26T13:45:48.423Z,6.20
2023-11-26T13:48:01.402Z,13.68
2023-11-26T13:50:13.502Z,15.18
2023-11-26T13:52:17.982Z,11.98
2023-11-26T13:54:21.135Z,13.52
2023-11-26T13:56:24.120Z,2.20
2023-11-26T13:58:27.274Z,3.60
2023-11-26T14:00:30.222Z,12.30
2023-11-26T14:02:33.997Z,15.07
2023-11-26T14:04:37.522Z,4.03
2023-11-26T14:06:40.630Z,7.63
2023-11-26T14:08:45.000Z,11.90
2023-11-26T14:10:48.073Z,10.77
2023-11-26T14:12:57.576Z,10.32
2023-11-26T14:15:00.591Z,11.52
2023-11-26T14:17:03.702Z,11.32
2023-11-26T14:19:07.698Z,15.68
2023-11-26T14:21:10.826Z,18.10
2023-11-26T14:23:13.815Z,14.05
2023-11-26T14:25:18.940Z,15.45
2023-11-26T14:27:22.040Z,13.77
2023-11-26T14:29:27.525Z,16.98
2023-11-26T14:31:30.562Z,19.48
2023-11-26T14:33:33.848Z,33.33
2023-11-26T14:35:36.920Z,22.48
2023-11-26T14:37:40.357Z,18.15
2023-11-26T14:39:43.506Z,6.50
2023-11-26T14:41:47.887Z,13.82
2023-11-26T14:43:51.279Z,17.88
2023-11-26T14:45:54.236Z,14.38
2023-11-26T14:48:00.074Z,12.38
2023-11-26T14:50:03.298Z,18.02
2023-11-26T14:52:10.447Z,13.98
2023-11-26T14:54:13.512Z,14.15
2023-11-26T14:56:17.863Z,13.15
2023-11-26T14:58:23.097Z,12.88
2023-11-26T15:00:26.414Z,9.50
2023-11-26T15:02:29.569Z,7.97
2023-11-26T15:04:32.759Z,8.10
2023-11-26T15:06:35.893Z,11.13
2023-11-26T15:08:38.888Z,9.35
2023-11-26T15:10:41.832Z,7.05
2023-11-26T15:12:44.924Z,7.68
2023-11-26T15:14:49.354Z,10.75
2023-11-26T15:16:52.348Z,13.38
2023-11-26T15:18:55.478Z,20.45
2023-11-26T15:20:58.788Z,21.50
2023-11-26T15:23:02.226Z,31.65
2023-11-26T15:25:06.480Z,21.42
2023-11-26T15:27:10.465Z,29.63
2023-11-26T15:29:13.636Z,24.98
2023-11-26T15:31:18.681Z,27.92
2023-11-26T15:33:21.888Z,23.35
2023-11-26T15:35:25.126Z,88.47
2023-11-26T15:37:28.614Z,32.55
2023-11-26T15:39:31.589Z,37.28
2023-11-26T15:41:34.606Z,28.67
2023-11-26T15:43:37.503Z,17.02
2023-11-26T15:45:40.617Z,24.25
2023-11-26T15:47:45.292Z,29.48
2023-11-26T15:49:48.404Z,86.55
2023-11-26T15:51:51.353Z,28.52
2023-11-26T15:54:02.582Z,32.17
2023-11-26T15:56:07.959Z,35.42
2023-11-26T15:58:10.945Z,48.72
2023-11-26T16:00:14.717Z,54.60
2023-11-26T16:02:18.141Z,68.25
2023-11-26T16:04:22.800Z,109.43
2023-11-26T16:06:25.975Z,73.22
2023-11-26T16:08:29.155Z,131.13
2023-11-26T16:10:32.118Z,87.53
2023-11-26T16:12:35.158Z,281.48
2023-11-26T16:14:40.468Z,174.40
2023-11-26T16:16:43.527Z,95.80
2023-11-26T16:18:47.086Z,69.80
2023-11-26T16:20:51.840Z,70.03
2023-11-26T16:22:54.928Z,89.75
2023-11-26T16:24:57.942Z,46.67
2023-11-26T16:27:01.083Z,52.85
2023-11-26T16:29:04.390Z,94.07
2023-11-26T16:31:10.696Z,74.57
2023-11-26T16:33:14.207Z,87.07
2023-11-26T16:35:20.100Z,156.95
2023-11-26T16:37:24.651Z,150.80
2023-11-26T16:39:28.754Z,135.67
2023-11-26T16:41:31.664Z,143.27
2023-11-26T16:43:34.756Z,151.88
2023-11-26T16:45:37.658Z,164.70
2023-11-26T16:47:40.720Z,165.02
2023-11-26T16:49:43.721Z,133.90
2023-11-26T16:51:47.936Z,150.95
2023-11-26T16:53:52.325Z,151.93
2023-11-26T16:55:55.376Z,146.23
2023-11-26T16:57:58.315Z,136.10
2023-11-26T17:00:01.436Z,145.82
2023-11-26T17:02:05.022Z,130.45
2023-11-26T17:04:08.163Z,149.38
2023-11-26T17:06:11.176Z,195.25
2023-11-26T17:08:14.266Z,204.38
2023-11-26T17:10:20.135Z,197.98
2023-11-26T17:12:23.244Z,225.93
2023-11-26T17:14:26.966Z,214.60
2023-11-26T17:16:30.035Z,180.50
2023-11-26T17:18:35.368Z,162.40
2023-11-26T17:20:39.025Z,148.48
2023-11-26T17:22:43.170Z,106.50
2023-11-26T17:24:46.270Z,110.03
2023-11-26T17:26:50.699Z,112.72
2023-11-26T17:28:53.759Z,117.90
2023-11-26T17:30:56.618Z,114.32
2023-11-26T17:32:59.792Z,121.03
2023-11-26T17:35:02.878Z,167.25
2023-11-26T17:37:07.204Z,148.77
2023-11-26T17:39:10.592Z,165.98
2023-11-26T17:41:13.705Z,148.00
2023-11-26T17:43:18.398Z,133.63
2023-11-26T17:45:22.223Z,107.75
2023-11-26T17:47:25.168Z,93.80
2023-11-26T17:49:28.477Z,80.82
2023-11-26T17:51:31.425Z,81.90
2023-11-26T17:53:34.444Z,74.85
2023-11-26T17:55:37.508Z,73.78
2023-11-26T17:57:40.718Z,73.15
2023-11-26T17:59:45.340Z,60.20
2023-11-26T18:01:50.461Z,52.40
2023-11-26T18:03:56.037Z,39.50
2023-11-26T18:05:59.497Z,46.22
2023-11-26T18:08:02.833Z,30.48
2023-11-26T18:10:07.426Z,30.83
2023-11-26T18:12:10.532Z,29.58
2023-11-26T18:14:13.545Z,30.00
2023-11-26T18:16:18.611Z,39.78
2023-11-26T18:18:21.701Z,45.33
2023-11-26T18:20:24.688Z,47.35
2023-11-26T18:22:27.674Z,57.88
2023-11-26T18:24:30.859Z,70.07
2023-11-26T18:26:34.046Z,68.18
2023-11-26T18:28:36.823Z,77.40
2023-11-26T18:30:39.971Z,63.08
2023-11-26T18:32:44.463Z,67.38
2023-11-26T18:34:48.363Z,69.70
2023-11-26T18:36:53.905Z,78.75
2023-11-26T18:38:56.966Z,72.15
2023-11-26T18:41:00.488Z,79.57
2023-11-26T18:43:03.999Z,77.68
2023-11-26T18:45:08.642Z,78.10
2023-11-26T18:47:11.925Z,81.40
2023-11-26T18:49:16.500Z,72.38
2023-11-26T18:51:20.181Z,70.60
2023-11-26T18:53:23.108Z,67.85
2023-11-26T18:55:26.610Z,69.78
2023-11-26T18:57:29.703Z,52.72
2023-11-26T18:59:33.418Z,58.13
2023-11-26T19:01:36.773Z,60.95
2023-11-26T19:03:42.771Z,57.22
2023-11-26T19:05:47.683Z,57.80
2023-11-26T19:07:51.016Z,74.93
2023-11-26T19:09:53.888Z,75.60
2023-11-26T19:11:56.885Z,74.95
2023-11-26T19:14:00.418Z,74.38
2023-11-26T19:16:03.419Z,68.10
2023-11-26T19:18:06.726Z,59.92
2023-11-26T19:20:11.329Z,57.83
2023-11-26T19:22:16.726Z,58.75
2023-11-26T19:24:19.853Z,55.65
2023-11-26T19:26:23.277Z,55.08
2023-11-26T19:28:27.649Z,59.78
2023-11-26T19:30:30.797Z,52.58
2023-11-26T19:32:34.959Z,53.80
2023-11-26T19:34:37.905Z,51.80
2023-11-26T19:36:41.052Z,51.75
2023-11-26T19:38:46.099Z,49.83
2023-11-26T19:40:49.310Z,44.45
2023-11-26T19:42:52.214Z,41.65
2023-11-26T19:44:55.557Z,41.17
2023-11-26T19:46:58.503Z,40.33
2023-11-26T19:49:01.889Z,40.28
2023-11-26T19:51:09.885Z,47.22
2023-11-26T19:53:13.282Z,45.95
2023-11-26T19:55:17.724Z,53.42
2023-11-26T19:57:21.245Z,63.80
2023-11-26T19:59:24.186Z,58.55
2023-11-26T20:01:27.383Z,53.60
2023-11-26T20:03:30.571Z,57.83
2023-11-26T20:05:33.594Z,55.70
2023-11-26T20:07:37.136Z,82.03
2023-11-26T20:09:40.188Z,69.18
2023-11-26T20:11:44.596Z,69.53
2023-11-26T20:13:48.574Z,70.55
2023-11-26T20:15:51.650Z,65.93
2023-11-26T20:17:55.210Z,65.50
2023-11-26T20:19:58.206Z,74.05
2023-11-26T20:22:01.256Z,65.28
2023-11-26T20:24:04.548Z,64.32
2023-11-26T20:26:07.894Z,57.70
2023-11-26T20:28:12.471Z,56.70
2023-11-26T20:30:15.871Z,47.88
2023-11-26T20:32:19.022Z,39.63
2023-11-26T20:34:22.231Z,42.60
2023-11-26T20:36:25.159Z,41.50
2023-11-26T20:38:28.318Z,39.38
2023-11-26T20:40:31.658Z,38.25
2023-11-26T20:42:35.066Z,35.83
2023-11-26T20:44:44.927Z,39.28
2023-11-26T20:46:48.009Z,35.80
2023-11-26T20:48:51.466Z,39.50
2023-11-26T20:50:54.466Z,43.65
2023-11-26T20:52:57.437Z,41.33
2023-11-26T20:55:00.428Z,36.22
2023-11-26T20:57:03.716Z,35.42
2023-11-26T20:59:06.769Z,38.28
2023-11-26T21:01:12.960Z,35.83
2023-11-26T21:03:16.382Z,37.20
2023-11-26T21:05:19.764Z,41.03
2023-11-26T21:07:23.680Z,40.53
2023-11-26T21:09:26.568Z,42.28
2023-11-26T21:11:29.596Z,41.45
2023-11-26T21:13:32.426Z,36.50
2023-11-26T21:15:35.461Z,44.15
2023-11-26T21:17:40.695Z,39.38
2023-11-26T21:19:43.633Z,33.20
2023-11-26T21:21:46.685Z,36.95
2023-11-26T21:23:49.855Z,40.88
2023-11-26T21:25:53.711Z,41.42
2023-11-26T21:27:56.686Z,37.72
2023-11-26T21:29:59.617Z,37.25
2023-11-26T21:32:02.914Z,42.03
2023-11-26T21:34:08.027Z,32.65
2023-11-26T21:36:11.674Z,40.30
2023-11-26T21:38:15.465Z,36.00
2023-11-26T21:40:18.663Z,39.30
2023-11-26T21:42:21.770Z,43.78
2023-11-26T21:44:24.844Z,35.83
2023-11-26T21:46:35.726Z,39.67
2023-11-26T21:48:44.310Z,38.47
2023-11-26T21:50:48.815Z,41.55
2023-11-26T21:52:51.816Z,41.85
2023-11-26T21:54:55.846Z,67.40
2023-11-26T21:56:59.380Z,67.10
2023-11-26T21:59:02.275Z,54.58
2023-11-26T22:01:05.708Z,91.78
2023-11-26T22:03:09.415Z,211.88
2023-11-26T22:05:12.423Z,246.80
2023-11-26T22:07:17.040Z,277.65
2023-11-26T22:09:20.389Z,243.48
2023-11-26T22:11:23.824Z,320.75
2023-11-26T22:13:27.145Z,331.58
2023-11-26T22:15:30.224Z,277.58
2023-11-26T22:17:34.043Z,228.82
2023-11-26T22:19:37.455Z,178.55
2023-11-26T22:21:40.516Z,203.95
2023-11-26T22:23:45.614Z,337.00
2023-11-26T22:25:48.674Z,327.75
2023-11-26T22:27:51.627Z,423.33
2023-11-26T22:29:54.746Z,215.68
2023-11-26T22:31:57.664Z,186.65
2023-11-26T22:34:02.240Z,115.53
2023-11-26T22:36:05.826Z,98.07
2023-11-26T22:38:10.321Z,76.72
2023-11-26T22:40:15.325Z,43.35
2023-11-26T22:42:18.368Z,65.28
2023-11-26T22:44:21.444Z,63.30
2023-11-26T22:46:25.537Z,141.50
2023-11-26T22:48:28.627Z,397.42
2023-11-26T22:50:38.493Z,528.08
2023-11-26T22:52:48.671Z,324.92
2023-11-26T22:54:51.700Z,196.10
2023-11-26T22:56:56.108Z,148.00
2023-11-26T22:58:59.155Z,90.82
2023-11-26T23:01:02.211Z,172.82
2023-11-26T23:03:05.492Z,167.00
2023-11-26T23:05:09.052Z,217.10
2023-11-26T23:07:12.097Z,95.63
2023-11-26T23:09:16.011Z,85.68
2023-11-26T23:11:19.476Z,65.13
2023-11-26T23:13:24.361Z,48.88
2023-11-26T23:15:27.819Z,29.00
2023-11-26T23:17:30.788Z,30.02
2023-11-26T23:19:34.239Z,33.80
2023-11-26T23:21:37.778Z,30.80
2023-11-26T23:23:49.173Z,29.92
2023-11-26T23:25:56.281Z,34.45
2023-11-26T23:27:59.832Z,26.88
2023-11-26T23:30:05.354Z,24.05
2023-11-26T23:34:11.190Z,29.42
2023-11-26T23:36:15.032Z,28.70
2023-11-26T23:38:18.159Z,28.10
2023-11-26T23:40:21.155Z,26.77
2023-11-26T23:42:24.068Z,23.67
2023-11-26T23:44:27.145Z,19.88
2023-11-26T23:46:31.559Z,24.70
2023-11-26T23:48:34.723Z,26.90
2023-11-26T23:50:37.642Z,29.55
2023-11-26T23:52:40.815Z,24.77
2023-11-26T23:54:43.762Z,26.98
2023-11-26T23:56:46.700Z,23.23
2023-11-26T23:58:49.725Z,29.27
